Time;durP1;ratioP1;P1;durP2;ratioP2;P2;SDS_P1;SDS_P2;PMS_P1;PMS_P2;Temp;Humidity;BMP_temperature;BMP_pressure;BME280_temperature;BME280_humidity;BME280_pressure;Samples;Min_cycle;Max_cycle;Signal;HPM_P1;HPM_P2
2021/04/30 00:01:31;;;;;;;19.27;12.43;;;;;;;14.81;60.68;99100.88;3588246;40;20313;-70
2021/04/30 00:03:57;;;;;;;15.35;11.73;;;;;;;14.78;61.21;99095.81;3585163;40;20317;-70
2021/04/30 00:06:23;;;;;;;18.20;11.55;;;;;;;14.75;61.49;99089.91;3583854;40;20344;-70
2021/04/30 00:08:50;;;;;;;19.38;12.27;;;;;;;14.76;61.75;99095.09;3585606;40;20034;-70
2021/04/30 00:11:16;;;;;;;20.25;12.07;;;;;;;14.79;61.59;99094.03;3584535;40;20049;-70
2021/04/30 00:13:42;;;;;;;23.27;12.30;;;;;;;14.79;61.81;99097.53;3584105;40;20077;-71
2021/04/30 00:16:10;;;;;;;18.35;11.10;;;;;;;14.78;61.63;99093.16;3583718;40;20167;-71
2021/04/30 00:18:36;;;;;;;16.13;10.50;;;;;;;14.72;61.70;99092.78;3587004;40;20047;-70
2021/04/30 00:21:03;;;;;;;12.85;8.38;;;;;;;14.65;61.29;99092.41;3585918;40;20414;-70
2021/04/30 00:23:32;;;;;;;11.23;7.85;;;;;;;14.60;61.29;99102.47;3583874;40;20285;-70
2021/04/30 00:26:01;;;;;;;12.55;8.80;;;;;;;14.56;61.17;99096.53;3595692;40;20082;-72
2021/04/30 00:28:27;;;;;;;11.00;8.40;;;;;;;14.53;60.95;99102.03;3584582;40;20045;-72
2021/04/30 00:30:59;;;;;;;11.60;8.38;;;;;;;14.51;60.92;99103.97;3587181;40;20037;-69
2021/04/30 00:33:28;;;;;;;14.75;8.57;;;;;;;14.49;60.93;99094.47;3582634;40;20040;-71
2021/04/30 00:35:55;;;;;;;15.05;8.60;;;;;;;14.50;60.91;99093.53;3587945;40;20048;-70
2021/04/30 00:38:22;;;;;;;13.52;7.95;;;;;;;14.49;60.81;99095.31;3588908;40;20045;-70
2021/04/30 00:40:49;;;;;;;16.13;9.63;;;;;;;14.47;61.04;99091.09;3588096;40;20090;-71
2021/04/30 00:43:16;;;;;;;19.15;10.48;;;;;;;14.46;61.06;99105.25;3585325;39;20041;-70
2021/04/30 00:45:52;;;;;;;18.60;9.95;;;;;;;14.44;60.90;99105.38;3586121;40;20107;-70
2021/04/30 00:48:19;;;;;;;12.80;8.27;;;;;;;14.39;61.01;99107.47;3595513;40;20093;-69
2021/04/30 00:50:46;;;;;;;11.68;7.38;;;;;;;14.39;60.87;99119.81;3588428;40;20036;-70
2021/04/30 00:53:13;;;;;;;10.82;7.43;;;;;;;14.40;61.29;99117.06;3587993;40;20077;-70
2021/04/30 00:55:39;;;;;;;11.07;7.63;;;;;;;14.38;61.02;99118.97;3585273;40;20037;-70
2021/04/30 00:58:05;;;;;;;11.35;8.52;;;;;;;14.37;61.11;99116.41;3582092;40;20033;-70
2021/04/30 01:00:34;;;;;;;12.85;7.47;;;;;;;14.37;60.83;99109.38;3588389;40;20032;-70
2021/04/30 01:03:01;;;;;;;14.15;7.97;;;;;;;14.38;60.60;99113.69;3587635;40;20110;-70
2021/04/30 01:05:27;;;;;;;13.70;8.05;;;;;;;14.35;60.73;99114.72;3582996;40;20043;-70
2021/04/30 01:07:56;;;;;;;17.48;8.93;;;;;;;14.33;60.74;99119.28;3584664;40;20417;-69
2021/04/30 01:10:26;;;;;;;14.85;8.90;;;;;;;14.33;60.73;99127.19;3584554;40;20040;-71
2021/04/30 01:12:52;;;;;;;22.05;11.43;;;;;;;14.29;60.67;99128.34;3588152;40;20437;-72
2021/04/30 01:15:19;;;;;;;26.92;13.05;;;;;;;14.26;60.84;99128.59;3595481;40;20381;-70
2021/04/30 01:17:46;;;;;;;25.08;13.48;;;;;;;14.23;60.73;99128.81;3585881;40;20039;-70
2021/04/30 01:20:15;;;;;;;21.23;11.90;;;;;;;14.22;60.80;99119.22;3595203;40;20377;-71
2021/04/30 01:22:44;;;;;;;13.00;8.43;;;;;;;14.21;60.55;99119.31;3583053;40;20044;-71
2021/04/30 01:25:15;;;;;;;12.40;7.40;;;;;;;14.20;60.73;99121.13;3588529;40;20052;-69
2021/04/30 01:27:42;;;;;;;10.00;6.72;;;;;;;14.18;60.54;99123.03;3586082;39;20040;-69
2021/04/30 01:30:11;;;;;;;9.90;6.22;;;;;;;14.17;60.81;99121.34;3588490;40;20323;-70
2021/04/30 01:32:38;;;;;;;10.10;6.25;;;;;;;14.17;60.28;99126.63;3587951;40;20044;-69
2021/04/30 01:35:06;;;;;;;10.75;6.55;;;;;;;14.16;60.84;99132.84;3586215;40;20032;-69
2021/04/30 01:37:33;;;;;;;7.50;5.70;;;;;;;14.12;60.37;99128.72;3581499;40;20065;-70
2021/04/30 01:40:00;;;;;;;8.50;6.03;;;;;;;14.13;60.60;99124.28;3582611;40;20080;-70
2021/04/30 01:42:27;;;;;;;8.35;6.18;;;;;;;14.14;60.10;99126.81;3587723;40;20487;-70
2021/04/30 01:44:54;;;;;;;8.77;6.63;;;;;;;14.12;60.32;99130.50;3585839;40;20306;-69
2021/04/30 01:47:20;;;;;;;9.77;6.30;;;;;;;14.12;60.33;99136.59;3583901;40;20063;-70
2021/04/30 01:49:46;;;;;;;10.45;6.28;;;;;;;14.12;60.39;99120.81;3585785;40;20077;-69
2021/04/30 01:52:13;;;;;;;11.77;7.60;;;;;;;14.13;60.27;99119.84;3584353;40;20445;-69
2021/04/30 01:54:39;;;;;;;10.98;6.25;;;;;;;14.14;60.23;99121.53;3584510;40;20300;-69
2021/04/30 01:57:10;;;;;;;8.70;6.40;;;;;;;14.12;60.26;99114.69;3588066;40;20426;-72
2021/04/30 01:59:36;;;;;;;;;;;;;;;14.24;59.72;99125.22;3588708;40;20076;-70
2021/04/30 02:02:03;;;;;;;8.50;6.20;;;;;;;14.12;59.63;99133.97;3587870;40;19950;-71
2021/04/30 02:04:29;;;;;;;8.60;6.22;;;;;;;14.05;59.96;99143.28;3587666;40;20044;-70
2021/04/30 02:06:55;;;;;;;8.38;6.13;;;;;;;14.02;60.22;99132.94;3588211;40;20313;-71
2021/04/30 02:09:21;;;;;;;8.93;6.18;;;;;;;13.96;60.32;99128.97;3588518;40;20078;-71
2021/04/30 02:11:48;;;;;;;8.60;6.32;;;;;;;13.91;60.74;99135.47;3587230;40;20080;-70
2021/04/30 02:14:15;;;;;;;12.68;8.10;;;;;;;13.86;60.70;99132.31;3589006;40;20040;-69
2021/04/30 02:16:49;;;;;;;13.45;8.27;;;;;;;13.83;60.51;99133.38;3588210;40;20109;-70
2021/04/30 02:19:15;;;;;;;18.05;9.23;;;;;;;13.82;60.67;99138.78;3588024;40;20084;-69
2021/04/30 02:21:42;;;;;;;12.70;9.35;;;;;;;13.79;60.68;99141.63;3587367;40;20044;-70
2021/04/30 02:24:09;;;;;;;13.43;8.48;;;;;;;13.74;60.82;99139.28;3588014;40;20301;-69
2021/04/30 02:26:35;;;;;;;10.95;7.75;;;;;;;13.68;60.86;99144.97;3584346;40;20437;-69
2021/04/30 02:29:01;;;;;;;12.40;8.48;;;;;;;13.62;60.99;99151.50;3585830;40;20174;-69
2021/04/30 02:31:28;;;;;;;9.43;7.30;;;;;;;13.56;61.09;99136.13;3587915;40;20044;-69
2021/04/30 02:33:54;;;;;;;11.30;7.32;;;;;;;13.51;61.37;99143.47;3588175;40;20073;-69
2021/04/30 02:36:21;;;;;;;11.38;8.35;;;;;;;13.50;61.37;99152.34;3588050;40;20290;-71
2021/04/30 02:38:47;;;;;;;10.68;7.93;;;;;;;13.44;61.33;99147.50;3588047;40;20089;-69
2021/04/30 02:41:13;;;;;;;13.05;7.78;;;;;;;13.39;61.40;99149.59;3587968;40;20037;-69
2021/04/30 02:43:39;;;;;;;10.65;7.85;;;;;;;13.32;61.53;99150.94;3588056;40;20386;-68
2021/04/30 02:46:06;;;;;;;12.80;7.75;;;;;;;13.26;61.74;99151.34;3589581;40;20055;-69
2021/04/30 02:48:34;;;;;;;13.75;9.00;;;;;;;13.21;61.89;99145.56;3589003;40;20336;-70
2021/04/30 02:51:03;;;;;;;12.80;8.05;;;;;;;13.18;61.87;99148.41;3589523;40;20043;-68
2021/04/30 02:53:29;;;;;;;11.68;7.78;;;;;;;13.16;61.71;99142.38;3589437;40;20420;-69
2021/04/30 02:55:55;;;;;;;9.27;7.20;;;;;;;13.10;61.68;99147.06;3587609;40;20088;-69
2021/04/30 02:58:22;;;;;;;12.27;7.97;;;;;;;13.02;61.87;99146.75;3583966;40;20069;-69
2021/04/30 03:00:49;;;;;;;11.98;7.65;;;;;;;13.00;62.06;99145.16;3589106;40;20056;-69
2021/04/30 03:03:15;;;;;;;11.73;7.57;;;;;;;12.97;62.12;99142.72;3587993;40;20402;-69
2021/04/30 03:05:43;;;;;;;11.32;7.38;;;;;;;12.89;62.05;99145.84;3585880;40;20032;-70
2021/04/30 03:08:09;;;;;;;13.35;7.72;;;;;;;12.78;62.31;99153.59;3596323;40;20044;-69
2021/04/30 03:10:36;;;;;;;11.90;7.82;;;;;;;12.68;62.56;99152.50;3586800;40;20047;-69
2021/04/30 03:13:02;;;;;;;13.30;6.78;;;;;;;12.56;62.40;99169.06;3580871;40;20037;-69
2021/04/30 03:15:28;;;;;;;9.27;7.55;;;;;;;12.47;62.64;99171.31;3583814;40;20041;-69
2021/04/30 03:17:55;;;;;;;9.40;6.90;;;;;;;12.44;62.56;99168.06;3578407;40;20041;-70
2021/04/30 03:20:22;;;;;;;10.15;6.85;;;;;;;12.45;62.34;99170.56;3579796;40;20401;-69
2021/04/30 03:22:49;;;;;;;9.20;7.40;;;;;;;12.43;62.32;99169.00;3578466;40;20061;-70
2021/04/30 03:25:16;;;;;;;9.82;6.88;;;;;;;12.39;62.35;99181.50;3579620;40;20045;-69
2021/04/30 03:27:43;;;;;;;10.15;7.05;;;;;;;12.39;62.24;99181.50;3579127;40;20035;-70
2021/04/30 03:37:31;;;;;;;8.68;5.95;;;;;;;12.31;61.91;99183.75;3580447;40;20036;-70
2021/04/30 03:39:58;;;;;;;11.95;6.38;;;;;;;12.29;61.90;99182.16;3582123;40;20029;-70
2021/04/30 03:42:25;;;;;;;18.30;6.80;;;;;;;12.28;61.97;99186.56;3584788;40;20065;-71
2021/04/30 03:44:51;;;;;;;17.63;10.63;;;;;;;12.21;62.05;99186.09;3593986;40;20041;-68
2021/04/30 03:47:18;;;;;;;8.65;6.68;;;;;;;12.13;62.34;99196.25;3584631;40;20434;-70
2021/04/30 03:49:59;;;;;;;13.07;7.15;;;;;;;12.07;62.38;99195.75;3578925;40;20060;-70
2021/04/30 03:52:25;;;;;;;13.27;7.32;;;;;;;11.96;62.64;99200.84;3579685;40;20033;-70
2021/04/30 03:54:51;;;;;;;11.45;7.40;;;;;;;11.89;62.99;99203.84;3580909;40;20037;-70
2021/04/30 03:57:18;;;;;;;13.48;8.32;;;;;;;11.84;63.21;99199.78;3580324;40;20384;-71
2021/04/30 03:59:44;;;;;;;15.98;8.25;;;;;;;11.84;63.29;99208.50;3579752;40;20077;-71
2021/04/30 04:02:10;;;;;;;16.20;8.10;;;;;;;11.83;63.20;99206.81;3578254;40;20387;-70
2021/04/30 04:04:37;;;;;;;12.85;7.93;;;;;;;11.79;63.33;99213.19;3579207;40;20080;-71
2021/04/30 04:07:03;;;;;;;10.38;8.20;;;;;;;11.79;63.26;99210.56;3578244;40;20045;-71
2021/04/30 04:09:30;;;;;;;14.82;7.55;;;;;;;11.80;63.23;99216.66;3579188;40;20049;-70
2021/04/30 04:11:56;;;;;;;15.02;8.43;;;;;;;11.82;63.20;99220.03;3580455;40;20092;-70
2021/04/30 04:14:43;;;;;;;15.57;8.10;;;;;;;11.83;62.85;99227.81;3583261;40;20064;-69
2021/04/30 04:17:09;;;;;;;14.40;8.15;;;;;;;11.83;63.19;99227.81;3586185;40;20143;-69
2021/04/30 04:19:35;;;;;;;11.07;8.15;;;;;;;11.82;63.07;99228.75;3585536;40;20329;-69
2021/04/30 04:22:02;;;;;;;11.02;7.95;;;;;;;11.86;63.10;99227.63;3581116;40;20033;-69
2021/04/30 04:24:28;;;;;;;13.00;7.93;;;;;;;11.96;62.98;99230.56;3578625;40;20041;-69
2021/04/30 04:26:54;;;;;;;16.17;8.80;;;;;;;12.05;62.70;99231.78;3578175;40;20432;-68
2021/04/30 04:29:20;;;;;;;18.48;9.02;;;;;;;12.15;62.35;99232.94;3579137;40;20033;-69
2021/04/30 04:31:47;;;;;;;17.90;9.27;;;;;;;12.25;62.27;99234.03;3578961;40;20073;-69
2021/04/30 04:34:14;;;;;;;15.93;9.27;;;;;;;12.33;62.00;99234.44;3579019;40;20080;-69
2021/04/30 04:36:40;;;;;;;15.68;9.20;;;;;;;12.44;61.68;99239.88;3579253;40;20033;-70
2021/04/30 04:39:06;;;;;;;13.05;8.07;;;;;;;12.58;61.50;99240.81;3586045;40;20037;-68
2021/04/30 04:41:33;;;;;;;12.23;8.27;;;;;;;12.70;61.03;99246.16;3578460;40;20048;-70
2021/04/30 04:43:59;;;;;;;13.45;8.50;;;;;;;12.80;60.78;99247.25;3578876;40;20065;-70
2021/04/30 04:46:25;;;;;;;11.70;8.73;;;;;;;12.99;60.23;99246.91;3583722;40;20059;-70
2021/04/30 04:48:52;;;;;;;11.57;8.75;;;;;;;13.28;59.88;99246.84;3582391;40;20398;-70
2021/04/30 04:51:18;;;;;;;15.32;8.02;;;;;;;13.42;59.23;99249.41;3587561;40;20080;-70
2021/04/30 04:53:45;;;;;;;14.35;9.05;;;;;;;13.49;59.25;99247.22;3588943;40;20076;-70
2021/04/30 04:56:11;;;;;;;10.35;7.88;;;;;;;13.65;58.79;99250.53;3587169;40;20089;-70
2021/04/30 04:58:37;;;;;;;14.27;8.70;;;;;;;14.03;58.14;99246.16;3588331;40;20408;-70
2021/04/30 05:01:06;;;;;;;11.57;8.73;;;;;;;14.51;56.70;99248.16;3588942;40;20062;-70
2021/04/30 05:03:32;;;;;;;11.68;7.50;;;;;;;14.75;56.59;99253.50;3588736;40;20029;-70
2021/04/30 05:05:59;;;;;;;13.57;8.38;;;;;;;14.62;56.51;99261.44;3589172;40;20063;-68
2021/04/30 05:08:26;;;;;;;14.68;8.95;;;;;;;14.54;56.88;99255.84;3589079;40;20313;-70
2021/04/30 05:10:52;;;;;;;9.63;7.18;;;;;;;14.69;56.33;99260.06;3588855;39;20049;-70
2021/04/30 05:13:18;;;;;;;14.38;9.10;;;;;;;15.13;55.61;99269.22;3588758;40;20057;-71
2021/04/30 05:15:44;;;;;;;15.98;8.10;;;;;;;15.49;54.44;99261.25;3587612;40;20042;-71
2021/04/30 05:18:11;;;;;;;11.93;7.97;;;;;;;15.39;54.53;99260.22;3581715;40;20029;-69
2021/04/30 05:20:37;;;;;;;11.75;7.57;;;;;;;15.25;55.10;99263.06;3589597;40;20043;-70
2021/04/30 05:23:04;;;;;;;12.85;8.30;;;;;;;15.30;54.94;99270.63;3582317;40;20037;-70
2021/04/30 05:25:30;;;;;;;14.90;8.25;;;;;;;15.39;54.35;99269.94;3580775;40;20041;-70
2021/04/30 05:27:57;;;;;;;14.07;8.77;;;;;;;15.42;54.30;99270.59;3579332;40;20036;-70
2021/04/30 05:30:23;;;;;;;13.48;8.05;;;;;;;15.47;53.76;99271.09;3578997;40;20029;-71
2021/04/30 05:32:49;;;;;;;13.80;8.35;;;;;;;15.89;52.70;99276.78;3579096;40;20029;-70
2021/04/30 05:35:16;;;;;;;14.30;8.38;;;;;;;16.85;50.67;99279.06;3578006;40;20040;-70
2021/04/30 05:37:43;;;;;;;12.13;7.72;;;;;;;18.07;47.62;99272.50;3578591;40;20338;-70
2021/04/30 05:40:11;;;;;;;10.65;7.18;;;;;;;19.02;45.71;99265.16;3579514;40;20037;-71
2021/04/30 05:42:38;;;;;;;11.10;7.63;;;;;;;19.83;44.38;99270.28;3577538;40;20065;-71
2021/04/30 05:45:05;;;;;;;8.85;6.57;;;;;;;20.53;42.33;99271.69;3579338;40;20065;-70
2021/04/30 05:47:31;;;;;;;10.45;6.53;;;;;;;20.69;42.01;99279.91;3579079;40;20031;-70
2021/04/30 05:49:58;;;;;;;9.88;6.72;;;;;;;20.70;42.12;99281.59;3578990;40;20041;-70
2021/04/30 05:52:24;;;;;;;8.57;6.88;;;;;;;20.66;41.76;99289.03;3577462;40;20069;-69
2021/04/30 05:54:50;;;;;;;13.60;7.30;;;;;;;21.05;41.36;99291.53;3578685;40;20077;-70
2021/04/30 05:57:17;;;;;;;8.02;6.28;;;;;;;20.84;41.27;99290.94;3588785;40;20051;-70
2021/04/30 05:59:43;;;;;;;9.10;6.35;;;;;;;20.45;41.29;99287.56;3595580;40;20048;-70
2021/04/30 06:02:10;;;;;;;11.38;6.65;;;;;;;20.04;42.07;99292.25;3588561;40;20059;-70
2021/04/30 06:04:36;;;;;;;10.35;7.00;;;;;;;19.96;42.16;99294.75;3581316;40;20047;-70
2021/04/30 06:07:02;;;;;;;10.80;6.68;;;;;;;20.21;41.71;99288.88;3578460;40;20069;-70
2021/04/30 06:09:28;;;;;;;8.75;6.80;;;;;;;20.48;41.01;99292.59;3578861;40;20477;-68
2021/04/30 06:11:55;;;;;;;11.85;6.30;;;;;;;20.80;40.28;99294.84;3578652;40;20055;-71
2021/04/30 06:14:29;;;;;;;10.95;6.88;;;;;;;21.23;39.50;99307.53;3579700;40;20143;-73
2021/04/30 06:16:55;;;;;;;9.80;5.97;;;;;;;21.72;38.63;99308.91;3580264;40;20045;-72
2021/04/30 06:19:22;;;;;;;9.02;6.68;;;;;;;22.14;37.49;99309.16;3582583;40;20064;-73
2021/04/30 06:21:48;;;;;;;7.55;6.13;;;;;;;22.27;37.19;99314.06;3590669;40;20040;-73
2021/04/30 06:24:14;;;;;;;7.63;6.38;;;;;;;22.43;36.62;99318.69;3585043;40;20041;-73
2021/04/30 06:26:41;;;;;;;7.47;6.50;;;;;;;22.56;36.32;99319.09;3582540;40;20035;-70
2021/04/30 06:29:08;;;;;;;9.23;6.47;;;;;;;23.61;34.86;99307.22;3582258;40;20382;-70
2021/04/30 06:31:36;;;;;;;9.45;6.00;;;;;;;24.02;33.69;99302.72;3582043;40;20051;-71
2021/04/30 06:34:03;;;;;;;8.40;6.28;;;;;;;23.64;34.34;99309.56;3578472;40;20352;-68
2021/04/30 06:36:29;;;;;;;9.18;5.78;;;;;;;23.17;34.82;99318.09;3578015;40;20072;-73
2021/04/30 06:38:55;;;;;;;8.43;7.03;;;;;;;23.40;34.66;99329.88;3584212;40;20125;-70
2021/04/30 06:41:21;;;;;;;10.85;7.38;;;;;;;25.23;31.90;99323.09;3592619;40;20409;-71
2021/04/30 06:43:48;;;;;;;8.07;6.20;;;;;;;26.39;30.02;99317.59;3577931;40;20065;-71
2021/04/30 06:46:14;;;;;;;9.85;6.40;;;;;;;27.10;29.04;99318.03;3578093;40;20033;-70
2021/04/30 06:48:42;;;;;;;11.63;6.65;;;;;;;28.15;27.96;99320.22;3577720;40;20045;-69
2021/04/30 06:51:08;;;;;;;11.73;7.10;;;;;;;29.52;25.87;99315.06;3581249;40;20123;-69
2021/04/30 06:53:34;;;;;;;8.63;6.47;;;;;;;30.24;25.04;99314.38;3580581;40;20038;-69
2021/04/30 06:56:01;;;;;;;11.82;7.30;;;;;;;31.04;23.57;99317.81;3585448;40;20314;-67
2021/04/30 06:58:27;;;;;;;9.98;7.30;;;;;;;32.38;21.90;99310.38;3585446;40;20037;-70
2021/04/30 07:00:53;;;;;;;8.75;6.45;;;;;;;34.25;19.50;99316.81;3583712;40;20159;-70
2021/04/30 07:03:20;;;;;;;8.63;6.38;;;;;;;35.03;18.92;99317.53;3587832;40;20045;-69
2021/04/30 07:05:47;;;;;;;11.35;6.72;;;;;;;36.49;17.34;99304.16;3587727;40;20044;-70
2021/04/30 07:08:13;;;;;;;9.20;6.95;;;;;;;36.05;17.45;99309.44;3587382;40;20177;-69
2021/04/30 07:10:40;;;;;;;13.05;6.72;;;;;;;36.74;16.55;99303.69;3586868;40;20085;-70
2021/04/30 07:13:10;;;;;;;9.20;6.65;;;;;;;37.86;15.75;99305.06;3583680;40;20378;-69
2021/04/30 07:15:36;;;;;;;10.77;6.50;;;;;;;39.19;14.71;99310.41;3585728;40;20037;-69
2021/04/30 07:18:03;;;;;;;11.43;8.35;;;;;;;38.76;14.51;99306.91;3583713;40;20033;-70
2021/04/30 07:20:30;;;;;;;8.57;7.07;;;;;;;39.79;13.92;99314.44;3584566;40;20064;-70
2021/04/30 07:22:57;;;;;;;7.15;5.75;;;;;;;40.97;12.90;99314.06;3589905;40;20118;-72
2021/04/30 07:25:24;;;;;;;8.65;6.22;;;;;;;41.30;12.63;99314.50;3587499;40;20117;-70
2021/04/30 07:27:50;;;;;;;7.20;5.45;;;;;;;41.98;11.69;99318.22;3587525;40;20068;-72
2021/04/30 07:30:18;;;;;;;8.40;6.00;;;;;;;42.76;10.92;99317.25;3586960;39;20033;-71
2021/04/30 07:32:44;;;;;;;8.02;6.03;;;;;;;38.98;12.79;99315.78;3584524;40;20194;-73
2021/04/30 07:35:11;;;;;;;8.18;5.60;;;;;;;39.29;12.56;99321.41;3587841;40;20414;-76
2021/04/30 07:37:39;;;;;;;7.18;5.47;;;;;;;40.35;11.55;99330.91;3585244;40;20043;-74
2021/04/30 07:40:08;;;;;;;7.95;6.43;;;;;;;42.03;10.32;99318.16;3590551;40;20041;-77
2021/04/30 07:42:35;;;;;;;8.93;6.25;;;;;;;42.32;9.88;99328.44;3593145;40;20121;-79
2021/04/30 07:45:02;;;;;;;6.32;4.85;;;;;;;42.48;10.02;99329.97;3585867;40;20032;-78
2021/04/30 07:47:28;;;;;;;8.07;5.20;;;;;;;43.55;9.11;99325.97;3584968;40;20032;-80
2021/04/30 07:49:55;;;;;;;8.88;5.47;;;;;;;44.31;8.60;99330.28;3584767;40;20093;-80
2021/04/30 07:52:22;;;;;;;9.88;6.30;;;;;;;44.50;8.18;99332.22;3586674;40;20033;-79
2021/04/30 07:54:49;;;;;;;8.45;6.22;;;;;;;44.25;7.94;99336.22;3582683;40;20118;-79
2021/04/30 07:57:21;;;;;;;7.88;5.47;;;;;;;44.93;7.63;99335.53;3587221;40;20036;-79
2021/04/30 07:59:48;;;;;;;6.85;5.15;;;;;;;45.05;7.67;99337.81;3587401;40;20052;-79
2021/04/30 08:02:15;;;;;;;9.20;6.25;;;;;;;44.95;7.63;99338.81;3596760;40;20065;-80
2021/04/30 08:04:42;;;;;;;9.13;5.45;;;;;;;45.47;7.00;99339.41;3596739;40;20044;-74
2021/04/30 08:07:12;;;;;;;7.38;5.53;;;;;;;44.51;7.49;99347.66;3588315;40;20044;-78
2021/04/30 08:09:42;;;;;;;6.97;6.03;;;;;;;40.96;9.70;99348.16;3581638;40;20029;-77
2021/04/30 08:12:09;;;;;;;6.50;5.68;;;;;;;41.24;9.78;99338.47;3584814;40;20048;-73
2021/04/30 08:14:37;;;;;;;8.60;5.85;;;;;;;39.92;10.02;99350.38;3587312;40;20110;-69
2021/04/30 08:17:03;;;;;;;6.70;6.00;;;;;;;37.82;11.00;99352.09;3588108;40;20155;-69
2021/04/30 08:19:30;;;;;;;7.13;5.97;;;;;;;38.43;11.36;99349.09;3588969;40;20059;-70
2021/04/30 08:21:56;;;;;;;8.20;5.70;;;;;;;39.07;10.72;99356.34;3588012;40;20073;-73
2021/04/30 08:24:23;;;;;;;10.13;6.60;;;;;;;37.83;11.11;99350.19;3588279;40;20044;-72
2021/04/30 08:26:49;;;;;;;9.15;5.95;;;;;;;37.79;10.79;99363.56;3589439;40;20033;-71
2021/04/30 08:29:16;;;;;;;8.30;6.10;;;;;;;38.64;10.38;99358.31;3589201;40;20048;-71
2021/04/30 08:31:44;;;;;;;7.88;6.68;;;;;;;39.70;9.89;99354.44;3589245;40;20109;-71
2021/04/30 08:34:11;;;;;;;9.30;6.75;;;;;;;40.85;9.62;99356.72;3587037;40;20334;-71
2021/04/30 08:36:37;;;;;;;9.05;7.10;;;;;;;41.79;8.59;99355.78;3589947;40;20033;-70
2021/04/30 08:39:05;;;;;;;11.90;7.18;;;;;;;44.03;7.44;99358.94;3589318;40;20045;-70
2021/04/30 08:41:34;;;;;;;7.05;6.07;;;;;;;45.58;7.02;99349.94;3578710;40;20029;-71
2021/04/30 08:44:01;;;;;;;7.18;6.47;;;;;;;46.76;6.13;99364.53;3579907;40;20041;-69
2021/04/30 08:46:28;;;;;;;8.63;6.38;;;;;;;45.80;6.47;99364.97;3592760;39;20065;-70
2021/04/30 08:49:01;;;;;;;7.68;6.75;;;;;;;43.71;7.72;99365.19;3592791;40;20048;-70
2021/04/30 08:51:27;;;;;;;7.45;6.45;;;;;;;43.02;7.66;99380.41;3582900;40;20068;-70
2021/04/30 08:53:54;;;;;;;8.10;6.72;;;;;;;43.04;7.66;99372.66;3590290;40;20037;-69
2021/04/30 08:56:20;;;;;;;7.93;6.93;;;;;;;43.20;8.13;99376.88;3584330;40;20310;-76
2021/04/30 08:58:47;;;;;;;7.53;6.78;;;;;;;42.64;8.14;99373.88;3582536;40;20290;-75
2021/04/30 09:01:15;;;;;;;7.85;6.88;;;;;;;42.92;7.38;99380.53;3583734;40;20112;-76
2021/04/30 09:03:42;;;;;;;8.68;7.30;;;;;;;42.00;8.45;99382.06;3581102;40;20375;-75
2021/04/30 09:06:09;;;;;;;11.45;7.60;;;;;;;40.31;9.36;99377.31;3582485;40;20327;-74
2021/04/30 09:08:47;;;;;;;10.80;7.10;;;;;;;41.36;8.92;99374.72;3591055;40;20114;-75
2021/04/30 09:11:32;;;;;;;7.65;6.85;;;;;;;41.92;8.38;99365.34;3583763;40;20045;-80
2021/04/30 09:14:29;;;;;;;9.15;6.43;;;;;;;40.29;9.37;99375.97;3583783;40;20028;-70
2021/04/30 09:17:04;;;;;;;10.27;6.65;;;;;;;37.57;10.58;99381.88;3578550;40;20091;-70
2021/04/30 09:19:33;;;;;;;10.52;6.70;;;;;;;38.10;10.37;99383.81;3582577;40;20051;-71
2021/04/30 09:22:02;;;;;;;10.45;7.28;;;;;;;38.62;10.20;99388.66;3583130;40;20350;-69
2021/04/30 09:24:28;;;;;;;8.93;7.63;;;;;;;39.56;9.44;99387.03;3582226;40;20041;-71
2021/04/30 09:26:57;;;;;;;7.63;6.80;;;;;;;39.27;9.67;99390.22;3582425;40;20044;-69
2021/04/30 09:29:26;;;;;;;11.27;6.68;;;;;;;39.78;9.37;99384.94;3582763;40;20037;-70
2021/04/30 09:31:53;;;;;;;7.70;6.78;;;;;;;39.06;9.77;99409.53;3589376;40;20033;-70
2021/04/30 09:34:24;;;;;;;9.18;6.78;;;;;;;38.28;10.54;99404.53;3590249;40;20043;-71
2021/04/30 09:37:14;;;;;;;7.60;6.68;;;;;;;39.40;9.66;99410.84;3590419;40;20033;-70
2021/04/30 09:39:58;;;;;;;11.95;8.20;;;;;;;39.08;9.44;99413.69;3580880;40;20056;-70
2021/04/30 09:42:27;;;;;;;7.70;6.20;;;;;;;36.77;10.45;99410.53;3582502;40;20064;-70
2021/04/30 09:44:56;;;;;;;8.57;5.75;;;;;;;37.13;9.50;99414.63;3582170;40;20277;-69
2021/04/30 09:47:25;;;;;;;7.47;5.63;;;;;;;37.00;9.67;99409.53;3582382;40;20422;-69
2021/04/30 09:49:53;;;;;;;7.30;5.45;;;;;;;36.54;10.08;99425.19;3584013;40;20072;-70
2021/04/30 09:52:22;;;;;;;8.07;5.80;;;;;;;34.94;11.04;99428.72;3588764;40;20024;-77
2021/04/30 09:54:50;;;;;;;7.00;5.70;;;;;;;31.72;13.16;99435.50;3588217;40;20046;-75
2021/04/30 09:57:19;;;;;;;7.75;6.57;;;;;;;28.22;16.07;99434.28;3588266;40;20033;-76
2021/04/30 09:59:54;;;;;;;8.63;6.30;;;;;;;27.06;17.70;99450.38;3588280;40;20062;-78
2021/04/30 10:02:22;;;;;;;6.15;5.35;;;;;;;26.34;18.63;99446.28;3588951;40;20025;-76
2021/04/30 10:04:50;;;;;;;6.80;5.90;;;;;;;25.98;19.38;99453.22;3596310;40;20046;-77
2021/04/30 10:07:27;;;;;;;7.43;6.10;;;;;;;25.33;19.69;99435.53;3588633;40;20028;-79
2021/04/30 10:10:04;;;;;;;7.13;6.13;;;;;;;24.56;20.60;99466.44;3595845;40;20343;-78
2021/04/30 10:12:37;;;;;;;7.32;6.60;;;;;;;24.03;21.30;99468.53;3589002;40;20113;-76
2021/04/30 10:15:18;;;;;;;7.85;6.50;;;;;;;23.43;21.78;99470.47;3596687;40;20059;-76
2021/04/30 10:17:46;;;;;;;9.88;6.22;;;;;;;23.08;21.84;99464.25;3592211;40;20033;-79
2021/04/30 10:20:15;;;;;;;9.95;7.05;;;;;;;22.83;22.68;99466.91;3590503;40;20032;-76
2021/04/30 10:22:45;;;;;;;6.70;5.93;;;;;;;22.77;22.52;99474.53;3596296;40;20301;-78
2021/04/30 10:25:15;;;;;;;9.32;6.03;;;;;;;22.40;23.37;99471.22;3595954;40;20033;-79
2021/04/30 10:27:44;;;;;;;7.72;6.10;;;;;;;22.20;23.33;99482.03;3596638;39;20483;-78
2021/04/30 10:30:17;;;;;;;10.63;7.55;;;;;;;22.06;23.95;99493.22;3595929;40;20045;-76
2021/04/30 10:32:49;;;;;;;6.60;5.90;;;;;;;21.72;23.84;99490.31;3593344;39;20029;-78
2021/04/30 10:35:23;;;;;;;9.45;6.80;;;;;;;21.48;24.42;99496.19;3584615;40;20369;-77
2021/04/30 10:37:52;;;;;;;10.05;6.50;;;;;;;21.31;24.49;99491.63;3587277;40;20033;-76
2021/04/30 10:40:18;;;;;;;8.93;6.97;;;;;;;20.96;24.78;99487.72;3583625;40;20040;-78
2021/04/30 10:42:46;;;;;;;8.65;6.35;;;;;;;20.71;25.06;99485.69;3586729;40;20045;-74
2021/04/30 10:45:16;;;;;;;8.13;6.55;;;;;;;20.70;25.25;99497.31;3584125;40;20076;-76
2021/04/30 10:48:02;;;;;;;7.25;6.47;;;;;;;21.09;24.93;99482.09;3583117;40;20420;-70
2021/04/30 10:50:29;;;;;;;8.80;6.70;;;;;;;21.47;24.49;99491.84;3584588;40;20294;-69
2021/04/30 10:53:24;;;;;;;9.60;7.00;;;;;;;21.28;24.73;99489.25;3585978;40;20048;-72
2021/04/30 10:55:51;;;;;;;8.52;6.32;;;;;;;21.20;25.13;99489.06;3584250;40;20029;-69
2021/04/30 10:58:35;;;;;;;7.43;6.63;;;;;;;21.61;24.11;99488.66;3582206;40;20114;-68
2021/04/30 11:01:21;;;;;;;8.73;6.40;;;;;;;21.40;24.68;99492.56;3585229;40;20284;-77
2021/04/30 11:04:15;;;;;;;8.93;6.45;;;;;;;21.38;24.39;99497.19;3582006;40;20037;-72
2021/04/30 11:06:44;;;;;;;8.80;6.50;;;;;;;21.07;25.11;99483.25;3583682;40;20036;-73
2021/04/30 11:09:19;;;;;;;8.50;6.68;;;;;;;20.81;25.63;99493.66;3586317;40;20051;-72
2021/04/30 11:11:47;;;;;;;9.30;6.88;;;;;;;20.62;25.66;99495.38;3588819;39;20084;-72
2021/04/30 11:14:30;;;;;;;8.05;6.57;;;;;;;20.33;26.30;99494.47;3586047;40;20048;-72
2021/04/30 11:17:00;;;;;;;9.40;6.57;;;;;;;20.35;26.18;99485.38;3585436;40;20033;-71
2021/04/30 11:19:28;;;;;;;8.55;7.50;;;;;;;20.55;25.74;99496.06;3589582;40;20041;-74
2021/04/30 11:21:56;;;;;;;8.95;7.28;;;;;;;20.81;26.07;99486.50;3587190;39;20036;-74
2021/04/30 11:24:40;;;;;;;13.75;8.65;;;;;;;20.85;26.14;99487.91;3585945;40;20037;-73
2021/04/30 11:27:36;;;;;;;8.40;7.05;;;;;;;21.09;25.54;99489.25;3585699;40;20046;-73
2021/04/30 11:30:23;;;;;;;9.05;7.35;;;;;;;20.93;26.54;99501.34;3583582;40;20040;-76
2021/04/30 11:32:55;;;;;;;10.27;7.85;;;;;;;20.74;27.08;99506.69;3583882;40;20308;-76
2021/04/30 11:35:23;;;;;;;9.38;7.07;;;;;;;20.81;27.83;99505.13;3585166;40;20118;-69
2021/04/30 11:38:01;;;;;;;9.43;7.55;;;;;;;21.13;26.79;99503.97;3585332;40;20037;-68
2021/04/30 11:40:36;;;;;;;11.68;7.55;;;;;;;20.94;27.41;99511.03;3588170;40;20040;-71
2021/04/30 11:43:06;;;;;;;8.85;7.20;;;;;;;21.10;27.46;99504.25;3585010;40;20068;-68